Time,TemperatureF,DewpointF,PressureIn,WindDirection,WindDirectionDegrees,WindSpeedMPH,WindSpeedGustMPH,Humidity,HourlyPrecipIn,Conditions,Clouds,dailyrainin,SolarRadiationWatts/m^2,SoftwareType,DateUTC
2013-08-16 00:00:00,70.6,53.6,29.87,ESE,105,0.0,7.0,55,0.00,,,0.00,0,Wunderground v.1.15,2013-08-16 07:00:00,
2013-08-16 00:10:00,70.4,53.5,29.87,ESE,105,0.0,7.0,55,0.00,,,0.00,0,Wunderground v.1.15,2013-08-16 07:10:00,
2013-08-16 00:20:00,70.2,53.8,29.86,ESE,105,0.0,7.0,56,0.00,,,0.00,0,Wunderground v.1.15,2013-08-16 07:20:00,
2013-08-16 00:30:00,69.9,54.0,29.86,ESE,105,0.0,7.0,57,0.00,,,0.00,0,Wunderground v.1.15,2013-08-16 07:30:00,
2013-08-16 00:40:00,69.7,53.8,29.87,ESE,105,0.0,7.0,57,0.00,,,0.00,0,Wunderground v.1.15,2013-08-16 07:40:00,
2013-08-16 00:50:00,69.4,54.0,29.87,ESE,105,0.0,7.0,58,0.00,,,0.00,0,Wunderground v.1.15,2013-08-16 07:50:00,
2013-08-16 01:00:00,69.1,53.2,29.86,ESE,105,0.0,7.0,57,0.00,,,0.00,0,Wunderground v.1.15,2013-08-16 08:00:00,
2013-08-16 01:10:00,69.0,53.1,29.86,ESE,105,0.0,7.0,57,0.00,,,0.00,0,Wunderground v.1.15,2013-08-16 08:10:00,
2013-08-16 01:20:00,68.9,53.5,29.86,ESE,105,0.0,7.0,58,0.00,,,0.00,0,Wunderground v.1.15,2013-08-16 08:20:00,
2013-08-16 01:30:00,68.9,53.5,29.85,ESE,105,0.0,7.0,58,0.00,,,0.00,0,Wunderground v.1.15,2013-08-16 08:30:00,
2013-08-16 01:39:00,69.0,53.6,29.85,ESE,105,0.0,7.0,58,0.00,,,0.00,0,Wunderground v.1.15,2013-08-16 08:39:00,
2013-08-16 01:50:00,69.2,53.8,29.85,ESE,105,0.0,7.0,58,0.00,,,0.00,0,Wunderground v.1.15,2013-08-16 08:50:00,
2013-08-16 01:59:00,69.1,53.7,29.85,ESE,105,0.0,7.0,58,0.00,,,0.00,0,Wunderground v.1.15,2013-08-16 08:59:00,
2013-08-16 02:10:00,69.2,53.3,29.85,ESE,105,0.0,7.0,57,0.00,,,0.00,0,Wunderground v.1.15,2013-08-16 09:10:00,
2013-08-16 02:19:00,69.2,52.8,29.85,ESE,105,0.0,7.0,56,0.00,,,0.00,0,Wunderground v.1.15,2013-08-16 09:19:00,
2013-08-16 02:30:00,69.1,52.7,29.85,ESE,105,0.0,7.0,56,0.00,,,0.00,0,Wunderground v.1.15,2013-08-16 09:30:00,
2013-08-16 02:40:00,69.1,51.8,29.84,ESE,105,0.0,7.0,54,0.00,,,0.00,0,Wunderground v.1.15,2013-08-16 09:40:00,
2013-08-16 02:50:00,69.1,51.8,29.85,ESE,105,0.0,7.0,54,0.00,,,0.00,0,Wunderground v.1.15,2013-08-16 09:50:00,
2013-08-16 03:00:00,69.1,51.8,29.84,ESE,105,0.0,7.0,54,0.00,,,0.00,0,Wunderground v.1.15,2013-08-16 10:00:00,
2013-08-16 03:10:00,69.0,52.2,29.84,ESE,105,0.0,7.0,55,0.00,,,0.00,0,Wunderground v.1.15,2013-08-16 10:10:00,
2013-08-16 03:20:00,68.8,52.0,29.84,ESE,105,0.0,7.0,55,0.00,,,0.00,0,Wunderground v.1.15,2013-08-16 10:20:00,
2013-08-16 03:30:00,68.6,51.8,29.84,ESE,105,0.0,7.0,55,0.00,,,0.00,0,Wunderground v.1.15,2013-08-16 10:30:00,
2013-08-16 03:40:00,68.5,51.7,29.84,ESE,105,0.0,7.0,55,0.00,,,0.00,0,Wunderground v.1.15,2013-08-16 10:40:00,
2013-08-16 03:50:00,68.4,51.6,29.84,ESE,105,0.0,7.0,55,0.00,,,0.00,0,Wunderground v.1.15,2013-08-16 10:50:00,
2013-08-16 04:00:00,68.2,50.9,29.84,ESE,105,0.0,7.0,54,0.00,,,0.00,0,Wunderground v.1.15,2013-08-16 11:00:00,
2013-08-16 04:10:00,68.2,51.4,29.84,ESE,105,0.0,7.0,55,0.00,,,0.00,0,Wunderground v.1.15,2013-08-16 11:10:00,
2013-08-16 04:20:00,68.1,51.3,29.84,ESE,105,0.0,7.0,55,0.00,,,0.00,0,Wunderground v.1.15,2013-08-16 11:20:00,
2013-08-16 04:30:00,68.1,50.8,29.84,ESE,105,0.0,7.0,54,0.00,,,0.00,0,Wunderground v.1.15,2013-08-16 11:30:00,
2013-08-16 04:40:00,68.0,50.2,29.84,ESE,105,0.0,7.0,53,0.00,,,0.00,0,Wunderground v.1.15,2013-08-16 11:40:00,
2013-08-16 04:50:00,67.9,50.1,29.84,ESE,105,0.0,7.0,53,0.00,,,0.00,0,Wunderground v.1.15,2013-08-16 11:50:00,
2013-08-16 05:00:00,67.9,49.6,29.84,ESE,105,0.0,7.0,52,0.00,,,0.00,0,Wunderground v.1.15,2013-08-16 12:00:00,
2013-08-16 05:10:00,68.0,49.2,29.84,ESE,105,0.0,7.0,51,0.00,,,0.00,0,Wunderground v.1.15,2013-08-16 12:10:00,
2013-08-16 05:20:00,68.3,49.5,29.84,ESE,105,0.0,7.0,51,0.00,,,0.00,0,Wunderground v.1.15,2013-08-16 12:20:00,
2013-08-16 05:30:00,68.4,49.6,29.84,ESE,105,0.0,7.0,51,0.00,,,0.00,0,Wunderground v.1.15,2013-08-16 12:30:00,
2013-08-16 06:10:00,70.3,47.3,29.84,ESE,105,0.0,7.0,44,0.00,,,0.00,0,Wunderground v.1.15,2013-08-16 13:10:00,
2013-08-16 06:20:00,70.5,47.5,29.84,ESE,105,0.0,7.0,44,0.00,,,0.00,0,Wunderground v.1.15,2013-08-16 13:20:00,
2013-08-16 06:30:00,70.6,47.6,29.84,ESE,105,0.0,7.0,44,0.00,,,0.00,7,Wunderground v.1.15,2013-08-16 13:30:00,
2013-08-16 06:40:00,71.0,46.7,29.84,ESE,105,1.0,1.0,42,0.00,,,0.00,9,Wunderground v.1.15,2013-08-16 13:40:00,
2013-08-16 06:50:00,71.3,45.7,29.85,ESE,105,0.0,7.0,40,0.00,,,0.00,12,Wunderground v.1.15,2013-08-16 13:50:00,
2013-08-16 07:00:00,72.0,45.7,29.85,ESE,105,0.0,7.0,39,0.00,,,0.00,14,Wunderground v.1.15,2013-08-16 14:00:00,
2013-08-16 07:10:00,72.3,45.9,29.85,ESE,105,0.0,7.0,39,0.00,,,0.00,16,Wunderground v.1.15,2013-08-16 14:10:00,
2013-08-16 07:20:00,72.2,47.2,29.86,ESE,105,0.0,7.0,41,0.00,,,0.00,19,Wunderground v.1.15,2013-08-16 14:20:00,
2013-08-16 07:30:00,72.3,47.3,29.86,ESE,105,0.0,7.0,41,0.00,,,0.00,21,Wunderground v.1.15,2013-08-16 14:30:00,
2013-08-16 07:40:00,72.5,48.1,29.87,ESE,105,0.0,7.0,42,0.00,,,0.00,23,Wunderground v.1.15,2013-08-16 14:40:00,
2013-08-16 07:50:00,72.8,49.0,29.87,ESE,105,0.0,7.0,43,0.00,,,0.00,25,Wunderground v.1.15,2013-08-16 14:50:00,
2013-08-16 08:00:00,73.2,49.4,29.87,ESE,105,0.0,7.0,43,0.00,,,0.00,25,Wunderground v.1.15,2013-08-16 15:00:00,
2013-08-16 08:10:00,74.1,51.4,29.87,ESE,105,0.0,7.0,45,0.00,,,0.00,26,Wunderground v.1.15,2013-08-16 15:10:00,
2013-08-16 08:20:00,74.7,50.1,29.87,ESE,105,0.0,7.0,42,0.00,,,0.00,28,Wunderground v.1.15,2013-08-16 15:20:00,
2013-08-16 08:30:00,74.9,49.6,29.88,ESE,105,0.0,7.0,41,0.00,,,0.00,141,Wunderground v.1.15,2013-08-16 15:30:00,
2013-08-16 08:40:00,75.4,50.1,29.88,ESE,105,0.0,7.0,41,0.00,,,0.00,415,Wunderground v.1.15,2013-08-16 15:40:00,
2013-08-16 08:50:00,75.8,50.4,29.88,SE,145,1.0,1.0,41,0.00,,,0.00,60,Wunderground v.1.15,2013-08-16 15:50:00,
2013-08-16 09:00:00,76.2,50.8,29.87,SE,142,1.0,1.0,41,0.00,,,0.00,33,Wunderground v.1.15,2013-08-16 16:00:00,
2013-08-16 09:10:00,76.7,51.2,29.87,SE,142,0.0,7.0,41,0.00,,,0.00,33,Wunderground v.1.15,2013-08-16 16:10:00,
2013-08-16 09:20:00,77.8,52.9,29.87,SW,215,0.0,7.0,42,0.00,,,0.00,35,Wunderground v.1.15,2013-08-16 16:20:00,
2013-08-16 09:30:00,79.2,52.8,29.88,SW,217,1.0,1.0,40,0.00,,,0.00,570,Wunderground v.1.15,2013-08-16 16:30:00,
2013-08-16 09:40:00,80.6,53.4,29.88,SW,217,1.0,1.0,39,0.00,,,0.00,603,Wunderground v.1.15,2013-08-16 16:40:00,
2013-08-16 09:50:00,81.7,54.3,29.88,WNW,294,2.0,7.0,39,0.00,,,0.00,631,Wunderground v.1.15,2013-08-16 16:50:00,
2013-08-16 10:00:00,82.6,54.4,29.88,WNW,295,2.0,2.0,38,0.00,,,0.00,661,Wunderground v.1.15,2013-08-16 17:00:00,
2013-08-16 10:10:00,82.8,54.6,29.88,NW,325,2.0,7.0,38,0.00,,,0.00,686,Wunderground v.1.15,2013-08-16 17:10:00,
2013-08-16 10:20:00,83.2,55.0,29.88,WNW,296,3.0,3.0,38,0.00,,,0.00,708,Wunderground v.1.15,2013-08-16 17:20:00,
2013-08-16 10:30:00,83.7,55.4,29.88,West,259,2.0,7.0,38,0.00,,,0.00,731,Wunderground v.1.15,2013-08-16 17:30:00,
2013-08-16 10:40:00,84.4,55.3,29.88,West,269,2.0,7.0,37,0.00,,,0.00,752,Wunderground v.1.15,2013-08-16 17:40:00,
2013-08-16 10:50:00,84.9,56.5,29.88,WNW,284,3.0,7.0,38,0.00,,,0.00,768,Wunderground v.1.15,2013-08-16 17:50:00,
2013-08-16 11:00:00,84.9,56.5,29.88,WNW,287,2.0,7.0,38,0.00,,,0.00,793,Wunderground v.1.15,2013-08-16 18:00:00,
2013-08-16 11:10:00,86.1,56.0,29.88,SSW,210,2.0,7.0,36,0.00,,,0.00,809,Wunderground v.1.15,2013-08-16 18:10:00,
2013-08-16 11:20:00,86.7,55.8,29.88,WNW,286,2.0,2.0,35,0.00,,,0.00,828,Wunderground v.1.15,2013-08-16 18:20:00,
2013-08-16 11:30:00,87.2,55.4,29.88,SSW,202,2.0,7.0,34,0.00,,,0.00,844,Wunderground v.1.15,2013-08-16 18:30:00,
2013-08-16 11:40:00,87.2,55.4,29.88,WNW,293,2.0,2.0,34,0.00,,,0.00,856,Wunderground v.1.15,2013-08-16 18:40:00,
2013-08-16 11:50:00,87.8,57.5,29.88,NNW,344,3.0,3.0,36,0.00,,,0.00,861,Wunderground v.1.15,2013-08-16 18:50:00,
2013-08-16 12:00:00,89.0,57.8,29.88,ESE,104,2.0,7.0,35,0.00,,,0.00,872,Wunderground v.1.15,2013-08-16 19:00:00,
2013-08-16 12:10:00,89.2,58.8,29.88,SSE,163,3.0,10.0,36,0.00,,,0.00,881,Wunderground v.1.15,2013-08-16 19:10:00,
2013-08-16 12:20:00,88.9,59.3,29.87,SE,136,5.0,5.0,37,0.00,,,0.00,882,Wunderground v.1.15,2013-08-16 19:20:00,
2013-08-16 12:30:00,89.2,59.5,29.87,SSE,153,5.0,7.0,37,0.00,,,0.00,879,Wunderground v.1.15,2013-08-16 19:30:00,
2013-08-16 12:40:00,89.3,60.4,29.87,SSE,163,6.0,6.0,38,0.00,,,0.00,891,Wunderground v.1.15,2013-08-16 19:40:00,
2013-08-16 12:50:00,89.1,57.9,29.86,SSE,168,5.0,5.0,35,0.00,,,0.00,888,Wunderground v.1.15,2013-08-16 19:50:00,
2013-08-16 13:00:00,89.3,60.4,29.86,SE,138,6.0,6.0,38,0.00,,,0.00,882,Wunderground v.1.15,2013-08-16 20:00:00,
2013-08-16 13:10:00,90.2,59.6,29.86,East,90,4.0,4.0,36,0.00,,,0.00,879,Wunderground v.1.15,2013-08-16 20:10:00,
2013-08-16 13:20:00,90.5,59.9,29.86,SSE,159,5.0,7.0,36,0.00,,,0.00,879,Wunderground v.1.15,2013-08-16 20:20:00,
2013-08-16 13:30:00,90.1,58.8,29.86,ESE,106,6.0,6.0,35,0.00,,,0.00,872,Wunderground v.1.15,2013-08-16 20:30:00,
2013-08-16 13:40:00,90.4,59.8,29.86,NW,323,5.0,5.0,36,0.00,,,0.00,861,Wunderground v.1.15,2013-08-16 20:40:00,
2013-08-16 13:50:00,90.6,59.2,29.86,SSE,161,5.0,5.0,35,0.00,,,0.00,861,Wunderground v.1.15,2013-08-16 20:50:00,
2013-08-16 14:00:00,91.3,58.2,29.86,ESE,109,4.0,7.0,33,0.00,,,0.00,849,Wunderground v.1.15,2013-08-16 21:00:00,
2013-08-16 14:10:00,91.4,58.3,29.86,South,169,5.0,5.0,33,0.00,,,0.00,838,Wunderground v.1.15,2013-08-16 21:10:00,
2013-08-16 14:20:00,91.6,57.6,29.85,SSE,167,5.0,8.0,32,0.00,,,0.00,830,Wunderground v.1.15,2013-08-16 21:20:00,
2013-08-16 14:30:00,91.0,57.9,29.85,SSE,164,6.0,6.0,33,0.00,,,0.00,807,Wunderground v.1.15,2013-08-16 21:30:00,
2013-08-16 14:40:00,91.8,60.3,29.85,SSE,165,5.0,5.0,35,0.00,,,0.00,796,Wunderground v.1.15,2013-08-16 21:40:00,
2013-08-16 14:50:00,91.7,59.3,29.85,SE,138,5.0,5.0,34,0.00,,,0.00,775,Wunderground v.1.15,2013-08-16 21:50:00,
2013-08-16 14:59:00,91.9,57.8,29.85,South,175,5.0,5.0,32,0.00,,,0.00,759,Wunderground v.1.15,2013-08-16 21:59:00,
2013-08-16 15:10:00,91.4,58.3,29.84,East,88,6.0,6.0,33,0.00,,,0.00,738,Wunderground v.1.15,2013-08-16 22:10:00,
2013-08-16 15:20:00,92.4,58.3,29.84,South,184,4.0,7.0,32,0.00,,,0.00,717,Wunderground v.1.15,2013-08-16 22:20:00,
2013-08-16 15:30:00,92.4,59.1,29.84,SE,124,4.0,4.0,33,0.00,,,0.00,693,Wunderground v.1.15,2013-08-16 22:30:00,
2013-08-16 15:40:00,92.3,58.2,29.84,South,178,4.0,4.0,32,0.00,,,0.00,661,Wunderground v.1.15,2013-08-16 22:40:00,
2013-08-16 15:50:00,92.6,58.4,29.83,East,99,4.0,4.0,32,0.00,,,0.00,635,Wunderground v.1.15,2013-08-16 22:50:00,
2013-08-16 16:00:00,92.6,57.6,29.83,SE,132,4.0,7.0,31,0.00,,,0.00,613,Wunderground v.1.15,2013-08-16 23:00:00,
2013-08-16 16:10:00,92.5,57.5,29.83,SE,144,4.0,9.0,31,0.00,,,0.00,584,Wunderground v.1.15,2013-08-16 23:10:00,
2013-08-16 16:20:00,92.2,56.3,29.83,SE,146,4.0,7.0,30,0.00,,,0.00,552,Wunderground v.1.15,2013-08-16 23:20:00,
2013-08-16 16:30:00,92.3,55.4,29.83,SE,129,5.0,5.0,29,0.00,,,0.00,526,Wunderground v.1.15,2013-08-16 23:30:00,
2013-08-16 16:40:00,92.2,53.4,29.83,South,169,5.0,5.0,27,0.00,,,0.00,497,Wunderground v.1.15,2013-08-16 23:40:00,
2013-08-16 16:50:00,91.5,52.8,29.83,SE,138,6.0,7.0,27,0.00,,,0.00,468,Wunderground v.1.15,2013-08-16 23:50:00,
2013-08-16 17:00:00,90.7,54.1,29.83,SE,130,6.0,7.0,29,0.00,,,0.00,434,Wunderground v.1.15,2013-08-17 00:00:00,
2013-08-16 17:10:00,90.5,53.9,29.83,ESE,119,5.0,5.0,29,0.00,,,0.00,406,Wunderground v.1.15,2013-08-17 00:10:00,
2013-08-16 17:20:00,90.4,53.8,29.83,East,97,5.0,7.0,29,0.00,,,0.00,376,Wunderground v.1.15,2013-08-17 00:20:00,
2013-08-16 17:30:00,89.4,53.0,29.83,ESE,117,6.0,6.0,29,0.00,,,0.00,339,Wunderground v.1.15,2013-08-17 00:30:00,
2013-08-16 17:40:00,90.1,53.6,29.83,SSE,155,3.0,7.0,29,0.00,,,0.00,309,Wunderground v.1.15,2013-08-17 00:40:00,
2013-08-16 17:50:00,89.4,52.0,29.83,East,97,5.0,5.0,28,0.00,,,0.00,274,Wunderground v.1.15,2013-08-17 00:50:00,
2013-08-16 18:00:00,89.4,53.0,29.83,South,169,4.0,4.0,29,0.00,,,0.00,243,Wunderground v.1.15,2013-08-17 01:00:00,
2013-08-16 18:10:00,89.1,51.7,29.83,ESE,117,5.0,7.0,28,0.00,,,0.00,204,Wunderground v.1.15,2013-08-17 01:10:00,
2013-08-16 18:20:00,88.8,51.5,29.83,SSE,149,4.0,7.0,28,0.00,,,0.00,165,Wunderground v.1.15,2013-08-17 01:20:00,
2013-08-16 18:30:00,88.3,51.1,29.83,ESE,112,4.0,4.0,28,0.00,,,0.00,127,Wunderground v.1.15,2013-08-17 01:30:00,
2013-08-16 18:40:00,88.3,51.1,29.83,ESE,122,3.0,3.0,28,0.00,,,0.00,95,Wunderground v.1.15,2013-08-17 01:40:00,
2013-08-16 18:50:00,88.0,51.8,29.83,ESE,122,2.0,7.0,29,0.00,,,0.00,30,Wunderground v.1.15,2013-08-17 01:50:00,
2013-08-16 19:00:00,87.7,51.5,29.83,SE,130,2.0,7.0,29,0.00,,,0.00,21,Wunderground v.1.15,2013-08-17 02:00:00,
2013-08-16 19:10:00,87.1,51.9,29.83,SE,128,2.0,2.0,30,0.00,,,0.00,19,Wunderground v.1.15,2013-08-17 02:10:00,
2013-08-16 19:20:00,86.7,52.4,29.83,SE,132,1.0,7.0,31,0.00,,,0.00,14,Wunderground v.1.15,2013-08-17 02:20:00,
2013-08-16 19:30:00,85.8,52.5,29.83,SE,132,2.0,2.0,32,0.00,,,0.00,9,Wunderground v.1.15,2013-08-17 02:30:00,
2013-08-16 19:40:00,84.6,53.1,29.83,SE,130,3.0,7.0,34,0.00,,,0.00,0,Wunderground v.1.15,2013-08-17 02:40:00,
2013-08-16 19:50:00,83.8,52.4,29.84,ESE,113,2.0,7.0,34,0.00,,,0.00,0,Wunderground v.1.15,2013-08-17 02:50:00,
2013-08-16 20:00:00,83.2,51.9,29.84,ESE,113,2.0,7.0,34,0.00,,,0.00,0,Wunderground v.1.15,2013-08-17 03:00:00,
2013-08-16 20:10:00,82.7,51.5,29.85,SE,126,3.0,7.0,34,0.00,,,0.00,0,Wunderground v.1.15,2013-08-17 03:10:00,
2013-08-16 20:20:00,82.3,51.1,29.85,SE,142,3.0,7.0,34,0.00,,,0.00,0,Wunderground v.1.15,2013-08-17 03:20:00,
2013-08-16 20:30:00,81.5,52.0,29.85,SE,126,4.0,7.0,36,0.00,,,0.00,0,Wunderground v.1.15,2013-08-17 03:30:00,
2013-08-16 20:40:00,80.5,51.8,29.85,SE,132,4.0,7.0,37,0.00,,,0.00,0,Wunderground v.1.15,2013-08-17 03:40:00,
2013-08-16 20:50:00,79.6,51.8,29.86,ESE,119,4.0,7.0,38,0.00,,,0.00,0,Wunderground v.1.15,2013-08-17 03:50:00,
2013-08-16 21:00:00,79.2,52.1,29.86,ESE,121,4.0,7.0,39,0.00,,,0.00,0,Wunderground v.1.15,2013-08-17 04:00:00,
2013-08-16 21:10:00,78.9,51.1,29.86,ESE,121,4.0,7.0,38,0.00,,,0.00,0,Wunderground v.1.15,2013-08-17 04:10:00,
2013-08-16 21:20:00,78.9,48.1,29.87,ESE,121,3.0,7.0,34,0.00,,,0.00,0,Wunderground v.1.15,2013-08-17 04:20:00,
2013-08-16 21:30:00,78.8,47.3,29.87,ESE,121,2.0,7.0,33,0.00,,,0.00,0,Wunderground v.1.15,2013-08-17 04:30:00,
2013-08-16 21:40:00,78.7,48.0,29.88,SE,126,2.0,7.0,34,0.00,,,0.00,0,Wunderground v.1.15,2013-08-17 04:40:00,
2013-08-16 21:50:00,78.4,48.5,29.88,SE,126,3.0,7.0,35,0.00,,,0.00,0,Wunderground v.1.15,2013-08-17 04:50:00,
2013-08-16 22:00:00,78.2,48.3,29.88,ESE,119,2.0,2.0,35,0.00,,,0.00,0,Wunderground v.1.15,2013-08-17 05:00:00,
2013-08-16 22:10:00,78.1,48.2,29.88,ESE,119,1.0,7.0,35,0.00,,,0.00,0,Wunderground v.1.15,2013-08-17 05:10:00,
2013-08-16 22:20:00,77.8,47.9,29.88,ESE,119,1.0,7.0,35,0.00,,,0.00,0,Wunderground v.1.15,2013-08-17 05:20:00,
2013-08-16 22:30:00,77.3,48.3,29.87,ESE,119,2.0,2.0,36,0.00,,,0.00,0,Wunderground v.1.15,2013-08-17 05:30:00,
2013-08-16 22:40:00,77.1,48.1,29.87,ESE,119,0.0,7.0,36,0.00,,,0.00,0,Wunderground v.1.15,2013-08-17 05:40:00,
2013-08-16 22:50:00,76.7,48.5,29.87,ESE,119,0.0,7.0,37,0.00,,,0.00,0,Wunderground v.1.15,2013-08-17 05:50:00,
2013-08-16 23:00:00,76.4,48.9,29.87,ESE,119,0.0,7.0,38,0.00,,,0.00,0,Wunderground v.1.15,2013-08-17 06:00:00,
2013-08-16 23:10:00,76.2,49.4,29.87,ESE,119,0.0,7.0,39,0.00,,,0.00,0,Wunderground v.1.15,2013-08-17 06:10:00,
2013-08-16 23:20:00,75.9,49.8,29.87,ESE,119,0.0,7.0,40,0.00,,,0.00,0,Wunderground v.1.15,2013-08-17 06:20:00,
2013-08-16 23:30:00,75.6,50.2,29.87,ESE,119,0.0,7.0,41,0.00,,,0.00,0,Wunderground v.1.15,2013-08-17 06:30:00,
2013-08-16 23:40:00,75.3,50.0,29.88,ESE,119,0.0,7.0,41,0.00,,,0.00,0,Wunderground v.1.15,2013-08-17 06:40:00,
2013-08-16 23:50:00,74.8,50.2,29.87,ESE,119,0.0,7.0,42,0.00,,,0.00,0,Wunderground v.1.15,2013-08-17 06:50:00,